createdAt,value
2018-03-22T00:01:37.121Z,26.50
2018-03-22T00:04:05.976Z,29.53
2018-03-22T00:06:35.589Z,23.17
2018-03-22T00:09:04.459Z,24.73
2018-03-22T00:11:34.104Z,25.80
2018-03-22T00:14:02.960Z,33.57
2018-03-22T00:16:32.581Z,30.13
2018-03-22T00:19:02.215Z,29.70
2018-03-22T00:21:31.076Z,27.80
2018-03-22T00:24:00.669Z,30.10
2018-03-22T00:26:30.293Z,27.30
2018-03-22T00:28:59.895Z,27.43
2018-03-22T00:31:29.532Z,31.90
2018-03-22T00:33:59.003Z,31.73
2018-03-22T00:36:28.643Z,29.70
2018-03-22T00:38:57.646Z,30.60
2018-03-22T00:41:26.490Z,28.07
2018-03-22T00:43:56.112Z,25.07
2018-03-22T00:46:24.969Z,29.83
2018-03-22T00:48:53.786Z,33.67
2018-03-22T00:51:23.398Z,31.07
2018-03-22T00:53:52.252Z,29.13
2018-03-22T00:56:21.114Z,31.20
2018-03-22T00:58:50.719Z,30.57
2018-03-22T01:01:20.379Z,31.60
2018-03-22T01:03:49.209Z,30.33
2018-03-22T01:06:18.838Z,29.73
2018-03-22T01:08:48.437Z,34.77
2018-03-22T01:11:18.048Z,25.27
2018-03-22T01:13:47.650Z,32.47
2018-03-22T01:16:17.276Z,29.80
2018-03-22T01:18:46.127Z,28.20
2018-03-22T01:21:14.963Z,30.60
2018-03-22T01:23:43.808Z,31.97
2018-03-22T01:26:13.562Z,34.47
2018-03-22T01:28:42.449Z,30.73
2018-03-22T01:31:11.300Z,32.40
2018-03-22T01:33:40.137Z,33.00
2018-03-22T01:36:09.004Z,33.37
2018-03-22T01:38:37.909Z,35.60
2018-03-22T01:41:06.754Z,33.03
2018-03-22T01:43:35.607Z,37.47
2018-03-22T01:46:04.430Z,33.40
2018-03-22T01:48:33.269Z,35.33
2018-03-22T01:51:02.105Z,52.37
2018-03-22T01:53:30.973Z,35.90
2018-03-22T01:55:59.801Z,30.13
2018-03-22T01:58:28.648Z,30.17
2018-03-22T02:00:57.500Z,31.80
2018-03-22T02:03:27.129Z,31.90
2018-03-22T02:05:57.859Z,35.20
2018-03-22T02:08:26.721Z,34.63
2018-03-22T02:10:55.538Z,32.07
2018-03-22T02:13:24.392Z,32.37
2018-03-22T02:15:53.220Z,29.17
2018-03-22T02:18:22.065Z,35.20
2018-03-22T02:20:50.896Z,36.60
2018-03-22T02:23:19.734Z,29.57
2018-03-22T02:25:48.580Z,29.10
2018-03-22T02:28:17.423Z,33.90
2018-03-22T02:30:46.269Z,36.40
2018-03-22T02:33:15.141Z,29.27
2018-03-22T02:35:43.983Z,33.60
2018-03-22T02:38:12.819Z,35.33
2018-03-22T02:40:41.677Z,30.83
2018-03-22T02:43:10.509Z,30.73
2018-03-22T02:45:39.376Z,28.10
2018-03-22T02:48:08.220Z,30.90
2018-03-22T02:50:37.068Z,30.90
2018-03-22T02:53:05.907Z,29.77
2018-03-22T02:55:35.750Z,29.33
2018-03-22T02:58:04.608Z,28.37
2018-03-22T03:00:33.528Z,26.67
2018-03-22T03:03:02.339Z,28.80
2018-03-22T03:05:31.178Z,28.27
2018-03-22T03:08:00.012Z,29.13
2018-03-22T03:10:28.871Z,30.50
2018-03-22T03:12:57.824Z,28.57
2018-03-22T03:15:27.451Z,28.50
2018-03-22T03:17:56.802Z,30.90
2018-03-22T03:20:25.647Z,34.10
2018-03-22T03:22:55.585Z,29.20
2018-03-22T03:25:25.202Z,31.13
2018-03-22T03:27:54.055Z,34.10
2018-03-22T03:30:22.899Z,33.17
2018-03-22T03:32:51.810Z,35.43
2018-03-22T03:35:20.623Z,36.40
2018-03-22T03:37:49.466Z,37.23
2018-03-22T03:40:18.300Z,30.70
2018-03-22T03:42:47.171Z,34.23
2018-03-22T03:45:16.029Z,30.80
2018-03-22T03:47:44.874Z,33.80
2018-03-22T03:50:13.714Z,31.97
2018-03-22T03:52:42.550Z,33.00
2018-03-22T03:55:12.276Z,34.77
2018-03-22T03:57:41.133Z,36.37
2018-03-22T04:00:10.005Z,34.23
2018-03-22T04:02:38.812Z,34.93
2018-03-22T04:05:07.663Z,38.50
2018-03-22T04:07:37.274Z,35.80
2018-03-22T04:10:06.917Z,31.70
2018-03-22T04:12:35.747Z,33.87
2018-03-22T04:15:04.599Z,33.70
2018-03-22T04:17:33.447Z,37.80
2018-03-22T04:20:03.063Z,36.83
2018-03-22T04:22:32.702Z,33.00
2018-03-22T04:25:01.562Z,36.47
2018-03-22T04:27:31.195Z,37.23
2018-03-22T04:30:00.054Z,40.90
2018-03-22T04:32:29.666Z,32.67
2018-03-22T04:34:59.287Z,38.60
2018-03-22T04:37:28.150Z,36.00
2018-03-22T04:39:56.992Z,38.40
2018-03-22T04:42:25.835Z,33.27
2018-03-22T04:44:55.442Z,33.73
2018-03-22T04:47:25.159Z,35.33
2018-03-22T04:49:54.767Z,36.27
2018-03-22T04:52:24.369Z,38.37
2018-03-22T04:54:53.214Z,32.97
2018-03-22T04:57:22.047Z,36.80
2018-03-22T04:59:50.887Z,39.33
2018-03-22T05:02:21.259Z,36.83
2018-03-22T05:04:50.113Z,40.43
2018-03-22T05:07:18.950Z,41.63
2018-03-22T05:09:47.787Z,37.10
2018-03-22T05:12:17.400Z,33.77
2018-03-22T05:14:46.229Z,42.07
2018-03-22T05:17:15.077Z,38.63
2018-03-22T05:19:44.699Z,46.00
2018-03-22T05:22:14.870Z,41.70
2018-03-22T05:24:43.728Z,45.03
2018-03-22T05:27:12.734Z,47.30
2018-03-22T05:29:41.575Z,47.00
2018-03-22T05:32:11.201Z,46.20
2018-03-22T05:34:40.843Z,39.77
2018-03-22T05:37:09.673Z,45.67
2018-03-22T05:39:38.519Z,50.00
2018-03-22T05:42:07.682Z,45.33
2018-03-22T05:44:36.802Z,48.43
2018-03-22T05:47:05.647Z,45.60
2018-03-22T05:49:34.502Z,46.83
2018-03-22T05:52:03.342Z,60.07
2018-03-22T05:54:32.961Z,42.50
2018-03-22T05:57:01.828Z,49.23
2018-03-22T05:59:30.670Z,48.27
2018-03-22T06:01:59.516Z,53.40
2018-03-22T06:04:28.355Z,48.37
2018-03-22T06:06:57.208Z,51.53
2018-03-22T06:09:26.034Z,63.23
2018-03-22T06:11:55.658Z,63.23
2018-03-22T06:14:25.266Z,51.83
2018-03-22T06:16:54.899Z,58.47
2018-03-22T06:19:23.710Z,63.17
2018-03-22T06:21:52.569Z,68.17
2018-03-22T06:24:22.220Z,62.23
2018-03-22T06:26:51.055Z,63.97
2018-03-22T06:29:19.918Z,65.47
2018-03-22T06:31:48.760Z,75.30
2018-03-22T06:34:17.648Z,66.53
2018-03-22T06:36:46.474Z,69.43
2018-03-22T06:39:15.326Z,69.10
2018-03-22T06:41:44.201Z,75.57
2018-03-22T06:44:13.042Z,69.63
2018-03-22T06:46:41.878Z,69.00
2018-03-22T06:49:10.747Z,74.90
2018-03-22T06:51:40.364Z,72.67
2018-03-22T06:54:09.986Z,70.73
2018-03-22T06:56:38.820Z,67.90
2018-03-22T06:59:07.698Z,62.30
2018-03-22T07:01:36.537Z,58.60
2018-03-22T07:04:05.359Z,61.87
2018-03-22T07:06:34.966Z,61.07
2018-03-22T07:09:05.472Z,57.07
2018-03-22T07:11:34.306Z,67.47
2018-03-22T07:14:03.162Z,60.87
2018-03-22T07:16:32.002Z,52.53
2018-03-22T07:19:00.830Z,48.73
2018-03-22T07:21:29.669Z,59.80
2018-03-22T07:23:58.507Z,62.90
2018-03-22T07:26:27.355Z,62.80
2018-03-22T07:28:56.178Z,57.80
2018-03-22T07:31:25.026Z,51.80
2018-03-22T07:33:53.866Z,52.93
2018-03-22T07:36:23.489Z,52.73
2018-03-22T07:38:53.106Z,57.33
2018-03-22T07:41:22.773Z,49.33
2018-03-22T07:43:52.389Z,51.23
2018-03-22T07:46:21.415Z,57.50
2018-03-22T07:48:51.022Z,50.50
2018-03-22T07:51:21.047Z,48.20
2018-03-22T07:53:49.876Z,51.20
2018-03-22T07:56:19.495Z,54.00
2018-03-22T07:58:48.327Z,47.90
2018-03-22T08:01:17.155Z,48.97
2018-03-22T08:03:46.034Z,51.23
2018-03-22T08:06:14.863Z,50.40
2018-03-22T08:08:43.702Z,51.20
2018-03-22T08:11:12.538Z,50.73
2018-03-22T08:13:41.379Z,44.87
2018-03-22T08:16:10.224Z,46.00
2018-03-22T08:18:39.072Z,40.60
2018-03-22T08:21:07.922Z,47.57
2018-03-22T08:23:36.741Z,44.97
2018-03-22T08:26:05.812Z,41.60
2018-03-22T08:28:35.465Z,37.73
2018-03-22T08:31:04.338Z,34.93
2018-03-22T08:33:33.187Z,38.50
2018-03-22T08:36:02.793Z,35.60
2018-03-22T08:38:32.406Z,32.30
2018-03-22T08:41:01.244Z,30.27
2018-03-22T08:43:30.082Z,31.60
2018-03-22T08:45:59.706Z,31.70
2018-03-22T08:48:28.596Z,30.00
2018-03-22T08:50:57.453Z,29.43
2018-03-22T08:53:27.053Z,34.77
2018-03-22T08:55:55.894Z,33.50
2018-03-22T08:58:24.861Z,34.70
2018-03-22T09:00:54.470Z,32.63
2018-03-22T09:03:24.088Z,35.07
2018-03-22T09:05:52.959Z,37.03
2018-03-22T09:08:23.289Z,32.97
2018-03-22T09:10:52.945Z,32.37
2018-03-22T09:13:21.884Z,32.43
2018-03-22T09:15:50.731Z,37.30
2018-03-22T09:18:19.571Z,30.43
2018-03-22T09:20:49.178Z,27.27
2018-03-22T09:23:18.784Z,30.97
2018-03-22T09:25:48.394Z,33.20
2018-03-22T09:28:17.998Z,31.70
2018-03-22T09:30:47.634Z,35.57
2018-03-22T09:33:16.513Z,37.47
2018-03-22T09:35:46.112Z,36.07
2018-03-22T09:38:15.721Z,36.07
2018-03-22T09:40:44.555Z,32.43
2018-03-22T09:43:13.452Z,34.13
2018-03-22T09:45:42.264Z,36.60
2018-03-22T09:48:11.118Z,35.23
2018-03-22T09:50:39.958Z,40.30
2018-03-22T09:53:09.562Z,40.40
2018-03-22T09:55:39.171Z,37.63
2018-03-22T09:58:08.054Z,40.50
2018-03-22T10:00:37.438Z,38.77
2018-03-22T10:03:07.051Z,40.33
2018-03-22T10:05:36.650Z,35.27
2018-03-22T10:08:06.357Z,42.13
2018-03-22T10:10:35.998Z,37.20
2018-03-22T10:13:04.838Z,34.97
2018-03-22T10:15:33.697Z,33.10
2018-03-22T10:18:02.544Z,36.37
2018-03-22T10:20:32.162Z,38.20
2018-03-22T10:23:01.545Z,41.20
2018-03-22T10:25:31.154Z,38.37
2018-03-22T10:28:00.762Z,34.90
2018-03-22T10:30:30.390Z,38.10
2018-03-22T10:32:59.328Z,38.63
2018-03-22T10:35:28.144Z,35.00
2018-03-22T10:37:57.823Z,37.40
2018-03-22T10:40:26.693Z,35.40
2018-03-22T10:42:55.559Z,39.97
2018-03-22T10:45:24.391Z,34.83
2018-03-22T10:47:53.878Z,33.77
2018-03-22T10:50:23.561Z,33.17
2018-03-22T10:52:52.470Z,34.50
2018-03-22T10:55:21.308Z,35.27
2018-03-22T10:57:50.949Z,34.33
2018-03-22T11:00:25.462Z,35.37
2018-03-22T11:02:56.770Z,36.63
2018-03-22T11:05:25.602Z,33.67
2018-03-22T11:07:54.453Z,36.20
2018-03-22T11:10:24.069Z,33.80
2018-03-22T11:12:52.897Z,33.30
2018-03-22T11:15:21.754Z,33.63
2018-03-22T11:17:50.672Z,35.07
2018-03-22T11:20:19.505Z,38.03
2018-03-22T11:22:48.342Z,34.57
2018-03-22T11:25:17.234Z,37.27
2018-03-22T11:27:46.082Z,37.37
2018-03-22T11:30:15.707Z,44.20
2018-03-22T11:32:45.332Z,42.00
2018-03-22T11:35:14.205Z,40.17
2018-03-22T11:37:43.810Z,44.37
2018-03-22T11:40:13.415Z,46.10
2018-03-22T11:42:44.330Z,40.00
2018-03-22T11:45:13.174Z,44.27
2018-03-22T11:47:42.055Z,47.97
2018-03-22T11:50:10.911Z,44.73
2018-03-22T11:52:40.522Z,52.63
2018-03-22T11:55:10.190Z,52.77
2018-03-22T11:57:38.994Z,54.93
2018-03-22T12:00:07.832Z,53.10
2018-03-22T12:02:36.674Z,59.30
2018-03-22T12:05:05.510Z,54.10
2018-03-22T12:07:34.373Z,56.37
2018-03-22T12:10:03.996Z,52.30
2018-03-22T12:12:32.875Z,57.17
2018-03-22T12:15:01.691Z,66.30
2018-03-22T12:17:30.557Z,58.70
2018-03-22T12:20:00.370Z,59.90
2018-03-22T12:22:29.991Z,60.23
2018-03-22T12:24:58.852Z,62.07
2018-03-22T12:27:27.752Z,58.90
2018-03-22T12:29:57.349Z,58.77
2018-03-22T12:32:27.032Z,59.10
2018-03-22T12:34:56.598Z,65.70
2018-03-22T12:37:25.438Z,65.03
2018-03-22T12:39:55.278Z,63.73
2018-03-22T12:42:24.654Z,72.93
2018-03-22T12:44:53.530Z,70.13
2018-03-22T12:47:22.343Z,72.67
2018-03-22T12:49:51.953Z,76.63
2018-03-22T12:52:21.561Z,67.53
2018-03-22T12:54:51.182Z,79.07
2018-03-22T12:57:20.013Z,71.57
2018-03-22T12:59:48.875Z,76.47
2018-03-22T13:02:18.480Z,78.50
2018-03-22T13:04:48.096Z,74.90
2018-03-22T13:07:17.693Z,74.27
2018-03-22T13:09:47.315Z,80.90
2018-03-22T13:12:16.922Z,74.13
2018-03-22T13:14:46.541Z,72.17
2018-03-22T13:17:16.153Z,74.63
2018-03-22T13:19:45.035Z,82.07
2018-03-22T13:22:14.616Z,86.70
2018-03-22T13:24:44.266Z,78.33
2018-03-22T13:27:13.354Z,82.00
2018-03-22T13:32:17.496Z,86.07
2018-03-22T13:34:46.324Z,81.57
2018-03-22T13:37:15.169Z,79.37
2018-03-22T13:39:44.055Z,72.73
2018-03-22T13:42:12.905Z,80.93
2018-03-22T13:44:42.538Z,76.10
2018-03-22T13:47:12.212Z,79.10
2018-03-22T13:49:41.041Z,89.47
2018-03-22T13:52:09.903Z,74.50
2018-03-22T13:54:39.512Z,75.80
2018-03-22T13:57:09.142Z,88.37
2018-03-22T13:59:37.970Z,81.20
2018-03-22T14:02:06.824Z,77.33
2018-03-22T14:04:35.666Z,82.40
2018-03-22T14:07:04.510Z,85.33
2018-03-22T14:09:33.366Z,90.63
2018-03-22T14:12:02.562Z,83.10
2018-03-22T14:14:31.647Z,91.07
2018-03-22T14:17:00.819Z,89.73
2018-03-22T14:19:30.043Z,92.90
2018-03-22T14:21:59.676Z,85.33
2018-03-22T14:24:29.295Z,95.80
2018-03-22T14:26:59.030Z,83.77
2018-03-22T14:29:27.906Z,82.03
2018-03-22T14:31:56.753Z,78.93
2018-03-22T14:34:26.377Z,81.33
2018-03-22T14:36:55.230Z,80.90
2018-03-22T14:39:24.095Z,71.07
2018-03-22T14:41:52.944Z,68.83
2018-03-22T14:44:22.578Z,66.10
2018-03-22T14:46:51.771Z,71.77
2018-03-22T14:49:20.632Z,78.63
2018-03-22T14:51:50.268Z,77.17
2018-03-22T14:54:19.125Z,68.13
2018-03-22T14:56:48.759Z,68.17
2018-03-22T14:59:17.626Z,69.60
2018-03-22T15:01:47.232Z,68.27
2018-03-22T15:04:16.835Z,64.47
2018-03-22T15:06:46.429Z,65.27
2018-03-22T15:09:16.052Z,66.30
2018-03-22T15:11:44.910Z,73.50
2018-03-22T15:14:13.740Z,67.27
2018-03-22T15:16:42.768Z,63.47
2018-03-22T15:19:11.663Z,71.70
2018-03-22T15:21:40.489Z,72.13
2018-03-22T15:24:10.128Z,76.23
2018-03-22T15:26:38.974Z,75.67
2018-03-22T15:29:07.848Z,67.30
2018-03-22T15:31:36.672Z,74.83
2018-03-22T15:34:06.400Z,56.37
2018-03-22T15:36:35.197Z,69.80
2018-03-22T15:39:04.048Z,71.63
2018-03-22T15:41:33.260Z,75.73
2018-03-22T15:44:02.889Z,73.80
2018-03-22T15:46:31.710Z,64.70
2018-03-22T15:49:00.567Z,69.00
2018-03-22T15:51:29.425Z,61.87
2018-03-22T15:53:59.038Z,63.50
2018-03-22T15:56:28.670Z,67.47
2018-03-22T15:58:57.566Z,54.00
2018-03-22T16:01:26.424Z,51.50
2018-03-22T16:03:55.280Z,51.73
2018-03-22T16:06:24.953Z,50.10
2018-03-22T16:08:53.762Z,55.07
2018-03-22T16:11:23.418Z,61.33
2018-03-22T16:13:52.247Z,61.30
2018-03-22T16:16:21.142Z,67.63
2018-03-22T16:18:49.996Z,59.60
2018-03-22T16:21:18.914Z,60.23
2018-03-22T16:23:47.744Z,61.57
2018-03-22T16:26:17.344Z,56.40
2018-03-22T16:28:46.981Z,65.10
2018-03-22T16:31:15.849Z,58.63
2018-03-22T16:33:45.475Z,55.90
2018-03-22T16:36:14.325Z,55.07
2018-03-22T16:38:43.983Z,63.10
2018-03-22T16:41:12.803Z,50.07
2018-03-22T16:43:41.707Z,47.37
2018-03-22T16:46:11.322Z,40.40
2018-03-22T16:48:40.946Z,41.17
2018-03-22T16:51:10.357Z,41.47
2018-03-22T16:53:39.971Z,45.60
2018-03-22T16:56:08.879Z,44.93
2018-03-22T16:58:37.719Z,47.27
2018-03-22T17:01:06.570Z,50.53
2018-03-22T17:03:35.440Z,48.70
2018-03-22T17:06:04.341Z,61.70
2018-03-22T17:08:33.181Z,53.77
2018-03-22T17:11:02.119Z,60.17
2018-03-22T17:13:30.966Z,70.53
2018-03-22T17:15:59.852Z,60.40
2018-03-22T17:18:28.718Z,69.10
2018-03-22T17:20:57.613Z,57.00
2018-03-22T17:23:27.256Z,48.70
2018-03-22T17:25:56.098Z,50.00
2018-03-22T17:28:25.716Z,47.00
2018-03-22T17:30:54.595Z,40.20
2018-03-22T17:33:24.210Z,40.40
2018-03-22T17:35:53.705Z,31.80
2018-03-22T17:38:23.322Z,23.90
2018-03-22T17:40:52.929Z,20.47
2018-03-22T17:43:22.559Z,23.20
2018-03-22T17:45:51.414Z,21.47
2018-03-22T17:48:21.065Z,21.07
2018-03-22T17:50:49.937Z,25.77
2018-03-22T17:53:19.552Z,21.90
2018-03-22T17:55:48.421Z,30.80
2018-03-22T17:58:18.041Z,24.87
2018-03-22T18:00:47.671Z,27.30
2018-03-22T18:03:16.509Z,31.83
2018-03-22T18:05:46.141Z,33.97
2018-03-22T18:08:15.000Z,33.50
2018-03-22T18:10:43.842Z,35.60
2018-03-22T18:13:12.739Z,39.17
2018-03-22T18:15:41.612Z,34.23
2018-03-22T18:18:10.480Z,33.77
2018-03-22T18:20:40.115Z,30.13
2018-03-22T18:23:08.952Z,34.23
2018-03-22T18:25:37.832Z,25.60
2018-03-22T18:28:06.663Z,23.43
2018-03-22T18:30:36.301Z,23.80
2018-03-22T18:33:05.156Z,37.63
2018-03-22T18:35:34.806Z,32.27
2018-03-22T18:38:03.618Z,38.70
2018-03-22T18:40:32.517Z,43.60
2018-03-22T18:43:01.367Z,43.83
2018-03-22T18:45:30.224Z,45.13
2018-03-22T18:47:59.088Z,48.20
2018-03-22T18:50:27.940Z,54.47
2018-03-22T18:52:56.774Z,48.53
2018-03-22T18:55:25.705Z,48.83
2018-03-22T18:57:54.547Z,47.63
2018-03-22T19:00:23.379Z,55.63
2018-03-22T19:02:52.242Z,48.33
2018-03-22T19:05:21.077Z,58.47
2018-03-22T19:07:49.966Z,61.23
2018-03-22T19:10:19.152Z,77.90
2018-03-22T19:12:47.991Z,65.10
2018-03-22T19:15:17.732Z,64.67
2018-03-22T19:17:47.347Z,61.77
2018-03-22T19:20:16.543Z,56.37
2018-03-22T19:22:46.190Z,55.60
2018-03-22T19:25:15.021Z,62.40
2018-03-22T19:27:45.351Z,51.73
2018-03-22T19:30:14.517Z,48.90
2018-03-22T19:32:43.403Z,37.10
2018-03-22T19:35:12.586Z,39.20
2018-03-22T19:37:41.440Z,34.77
2018-03-22T19:40:11.061Z,34.73
2018-03-22T19:42:39.900Z,35.83
2018-03-22T19:45:08.754Z,30.17
2018-03-22T19:47:37.598Z,34.60
2018-03-22T19:50:07.229Z,37.73
2018-03-22T19:52:36.071Z,44.97
2018-03-22T19:55:05.698Z,42.07
2018-03-22T19:57:35.300Z,43.53
2018-03-22T20:00:04.916Z,37.40
2018-03-22T20:02:34.529Z,37.97
2018-03-22T20:05:03.388Z,30.90
2018-03-22T20:07:32.671Z,35.40
2018-03-22T20:10:02.317Z,36.30
2018-03-22T20:12:31.927Z,34.70
2018-03-22T20:15:01.533Z,28.90
2018-03-22T20:17:30.376Z,27.90
2018-03-22T20:19:59.232Z,34.97
2018-03-22T20:22:28.128Z,29.17
2018-03-22T20:24:57.717Z,29.30
2018-03-22T20:27:26.595Z,31.90
2018-03-22T20:29:55.463Z,39.67
2018-03-22T20:32:26.649Z,29.77
2018-03-22T20:34:55.492Z,21.90
2018-03-22T20:37:24.343Z,28.80
2018-03-22T20:39:53.188Z,29.63
2018-03-22T20:42:22.811Z,34.43
2018-03-22T20:44:52.412Z,36.78
2018-03-22T20:47:21.261Z,28.67
2018-03-22T20:49:50.082Z,29.70
2018-03-22T20:52:19.738Z,33.13
2018-03-22T20:54:48.602Z,37.00
2018-03-22T20:57:17.454Z,34.37
2018-03-22T20:59:47.046Z,38.60
2018-03-22T21:02:15.920Z,37.20
2018-03-22T21:04:44.771Z,41.83
2018-03-22T21:07:13.654Z,43.90
2018-03-22T21:09:42.483Z,39.63
2018-03-22T21:12:11.324Z,50.20
2018-03-22T21:14:40.179Z,50.50
2018-03-22T21:17:09.821Z,50.83
2018-03-22T21:19:38.656Z,55.60
2018-03-22T21:22:07.498Z,49.40
2018-03-22T21:24:36.352Z,51.57
2018-03-22T21:27:05.969Z,53.57
2018-03-22T21:29:35.600Z,60.43
2018-03-22T21:32:05.185Z,67.20
2018-03-22T21:34:34.790Z,61.00
2018-03-22T21:37:04.416Z,74.43
2018-03-22T21:39:33.262Z,64.97
2018-03-22T21:42:06.750Z,68.80
2018-03-22T21:44:35.599Z,71.90
2018-03-22T21:47:16.491Z,57.10
2018-03-22T21:49:45.325Z,63.37
2018-03-22T21:52:26.990Z,57.97
2018-03-22T21:54:55.822Z,63.40
2018-03-22T21:57:25.109Z,67.03
2018-03-22T21:59:53.986Z,80.90
2018-03-22T22:02:24.753Z,77.37
2018-03-22T22:04:54.412Z,77.50
2018-03-22T22:07:23.228Z,84.67
2018-03-22T22:09:52.087Z,83.20
2018-03-22T22:12:21.689Z,78.77
2018-03-22T22:14:51.324Z,69.53
2018-03-22T22:17:20.171Z,75.40
2018-03-22T22:19:49.014Z,65.70
2018-03-22T22:22:17.862Z,71.33
2018-03-22T22:24:47.514Z,65.30
2018-03-22T22:27:16.375Z,70.70
2018-03-22T22:29:45.204Z,69.23
2018-03-22T22:32:14.068Z,85.90
2018-03-22T22:34:42.911Z,65.27
2018-03-22T22:37:11.761Z,78.57
2018-03-22T22:39:40.585Z,78.80
2018-03-22T22:42:09.456Z,78.13
2018-03-22T22:44:38.310Z,80.83
2018-03-22T22:47:07.154Z,87.03
2018-03-22T22:49:35.986Z,94.70
2018-03-22T22:52:04.845Z,107.00
2018-03-22T22:54:34.453Z,105.70
2018-03-22T22:57:04.093Z,106.20
2018-03-22T22:59:32.945Z,102.93
2018-03-22T23:02:01.827Z,104.40
2018-03-22T23:04:30.660Z,109.03
2018-03-22T23:07:00.298Z,102.20
2018-03-22T23:09:29.154Z,106.60
2018-03-22T23:11:58.779Z,91.50
2018-03-22T23:14:27.626Z,104.57
2018-03-22T23:16:56.470Z,107.37
2018-03-22T23:19:25.352Z,110.67
2018-03-22T23:21:54.230Z,118.00
2018-03-22T23:24:23.096Z,111.93
2018-03-22T23:26:53.538Z,124.70
2018-03-22T23:29:22.728Z,150.93
2018-03-22T23:31:51.606Z,129.13
2018-03-22T23:34:20.512Z,147.43
2018-03-22T23:36:50.130Z,158.50
2018-03-22T23:39:19.762Z,167.97
2018-03-22T23:41:48.620Z,151.60
2018-03-22T23:44:17.435Z,142.13
2018-03-22T23:46:46.287Z,136.87
2018-03-22T23:49:15.887Z,162.67
2018-03-22T23:51:44.736Z,148.70
2018-03-22T23:54:13.580Z,144.53
2018-03-22T23:56:43.213Z,132.60
2018-03-22T23:59:12.066Z,136.43
